Time;durP1;ratioP1;P1;durP2;ratioP2;P2;SDS_P1;SDS_P2;PMS_P1;PMS_P2;Temp;Humidity;BMP_temperature;BMP_pressure;BME280_temperature;BME280_humidity;BME280_pressure;Samples;Min_cycle;Max_cycle;Signal;HPM_P1;HPM_P2
2023/12/28 00:02:02;;;;;;;2.13;1.63;;;5.60;99.90;;;;;;5012827;28;20259;-92
2023/12/28 00:04:28;;;;;;;1.07;0.97;;;5.70;99.90;;;;;;5013096;28;20181;-90
2023/12/28 00:06:54;;;;;;;1.70;1.60;;;5.60;99.90;;;;;;5013249;28;20435;-91
2023/12/28 00:09:19;;;;;;;1.00;0.90;;;5.60;99.90;;;;;;5011547;28;20204;-90
2023/12/28 00:11:45;;;;;;;10.53;1.67;;;5.60;99.90;;;;;;5009779;28;20227;-90
2023/12/28 00:14:10;;;;;;;1.70;1.20;;;5.70;99.90;;;;;;5013328;28;20180;-90
2023/12/28 00:16:37;;;;;;;1.60;1.40;;;5.70;99.90;;;;;;5002415;28;20199;-90
2023/12/28 00:19:03;;;;;;;10.83;1.73;;;5.60;99.90;;;;;;5010705;28;20246;-90
2023/12/28 00:21:32;;;;;;;1.97;1.20;;;5.60;99.90;;;;;;5023854;28;20919;-89
2023/12/28 00:23:58;;;;;;;1.40;1.30;;;5.60;99.90;;;;;;5031437;28;20430;-90
2023/12/28 00:26:23;;;;;;;1.47;1.37;;;5.70;99.90;;;;;;5032779;28;20417;-90
2023/12/28 00:28:49;;;;;;;1.87;1.67;;;5.70;99.90;;;;;;5031839;28;20702;-90
2023/12/28 00:31:15;;;;;;;1.37;1.10;;;5.70;99.90;;;;;;5031777;28;20221;-90
2023/12/28 00:33:40;;;;;;;1.23;0.90;;;5.70;99.90;;;;;;5032938;28;20179;-90
2023/12/28 00:36:06;;;;;;;2.30;1.63;;;5.70;99.90;;;;;;5027371;28;20252;-90
2023/12/28 00:38:31;;;;;;;1.40;1.30;;;5.70;99.90;;;;;;5026223;28;20206;-90
2023/12/28 00:40:57;;;;;;;1.10;0.80;;;5.80;99.90;;;;;;5013889;28;20202;-88
2023/12/28 00:43:23;;;;;;;1.43;1.13;;;5.80;99.90;;;;;;5014231;28;20546;-90
2023/12/28 00:45:48;;;;;;;2.50;1.63;;;5.80;99.90;;;;;;5020434;28;20422;-89
2023/12/28 00:48:14;;;;;;;1.53;1.40;;;5.80;99.90;;;;;;5040672;28;20210;-90
2023/12/28 00:50:40;;;;;;;1.50;1.07;;;5.90;99.90;;;;;;5026647;28;20839;-89
2023/12/28 00:53:05;;;;;;;1.20;0.83;;;5.90;99.90;;;;;;5011046;28;20183;-89
2023/12/28 00:55:31;;;;;;;5.33;3.03;;;6.00;99.90;;;;;;5012555;28;20187;-89
2023/12/28 00:57:56;;;;;;;1.10;0.83;;;6.00;99.90;;;;;;5032708;28;20259;-90
2023/12/28 01:00:22;;;;;;;1.77;1.67;;;6.10;99.90;;;;;;5012242;28;20206;-89
2023/12/28 01:02:47;;;;;;;1.10;0.70;;;6.10;99.90;;;;;;5044294;28;20184;-88
2023/12/28 01:05:14;;;;;;;1.83;1.73;;;6.10;99.90;;;;;;5047039;28;20265;-90
2023/12/28 01:07:39;;;;;;;1.10;0.70;;;6.30;99.90;;;;;;5032299;28;20203;-90
2023/12/28 01:10:06;;;;;;;1.50;1.30;;;6.30;99.90;;;;;;5029950;28;20450;-91
2023/12/28 01:12:31;;;;;;;1.27;1.10;;;6.40;99.90;;;;;;5037362;28;20174;-89
2023/12/28 01:14:57;;;;;;;3.10;2.23;;;6.40;99.90;;;;;;5031495;28;20531;-91
2023/12/28 01:17:26;;;;;;;3.43;1.60;;;6.50;99.90;;;;;;5005272;28;20220;-88
2023/12/28 01:19:51;;;;;;;1.40;0.97;;;6.50;99.90;;;;;;5024084;28;20187;-91
2023/12/28 01:22:17;;;;;;;1.20;0.90;;;6.50;99.90;;;;;;5024807;28;20429;-89
2023/12/28 01:24:45;;;;;;;2.00;1.90;;;6.60;99.90;;;;;;5016586;28;20203;-89
2023/12/28 01:27:11;;;;;;;1.10;1.00;;;6.60;99.90;;;;;;5044170;28;20225;-89
2023/12/28 01:29:36;;;;;;;1.37;1.27;;;6.60;99.90;;;;;;5054470;28;20488;-89
2023/12/28 01:32:03;;;;;;;2.13;0.97;;;6.50;99.90;;;;;;5044283;28;20538;-90
2023/12/28 01:34:29;;;;;;;1.73;1.63;;;6.50;99.90;;;;;;5045040;28;20190;-89
2023/12/28 01:36:54;;;;;;;2.50;1.33;;;6.60;99.90;;;;;;5051838;28;20413;-88
2023/12/28 01:39:20;;;;;;;1.40;1.20;;;6.70;99.90;;;;;;5030638;28;20616;-89
2023/12/28 01:41:46;;;;;;;1.10;0.80;;;6.70;99.90;;;;;;5032577;28;20187;-89
2023/12/28 01:44:12;;;;;;;1.50;0.97;;;6.60;99.90;;;;;;5034452;28;20325;-88
2023/12/28 01:46:37;;;;;;;1.47;1.17;;;6.70;99.90;;;;;;5016722;28;20466;-89
2023/12/28 01:49:04;;;;;;;1.10;0.80;;;6.70;99.90;;;;;;5037925;28;20579;-90
2023/12/28 01:51:30;;;;;;;1.50;1.33;;;6.80;99.90;;;;;;5051565;28;20209;-89
2023/12/28 01:53:57;;;;;;;1.10;1.00;;;6.80;99.90;;;;;;5044187;28;20529;-89
2023/12/28 01:56:24;;;;;;;1.37;1.10;;;6.90;99.90;;;;;;5040962;28;20430;-88
2023/12/28 01:58:52;;;;;;;1.93;1.63;;;6.80;99.90;;;;;;5036714;28;21175;-88
2023/12/28 02:01:17;;;;;;;2.40;1.00;;;6.80;99.90;;;;;;5036921;28;20453;-88
2023/12/28 02:03:43;;;;;;;1.43;1.33;;;6.80;99.90;;;;;;5020624;28;20945;-88
2023/12/28 02:06:09;;;;;;;1.30;1.10;;;6.80;99.90;;;;;;5035296;28;20694;-89
2023/12/28 02:08:34;;;;;;;1.30;1.17;;;6.90;99.90;;;;;;5037331;28;20697;-90
2023/12/28 02:11:00;;;;;;;0.90;0.70;;;6.90;99.90;;;;;;5048498;28;20647;-89
2023/12/28 02:13:26;;;;;;;2.20;1.90;;;6.90;99.90;;;;;;5033511;28;20266;-89
2023/12/28 02:15:58;;;;;;;1.20;1.10;;;6.90;99.90;;;;;;5032045;28;20206;-88
2023/12/28 02:18:30;;;;;;;0.90;0.60;;;6.90;99.90;;;;;;5034626;28;20675;-88
2023/12/28 02:20:57;;;;;;;3.43;3.13;;;7.00;99.90;;;;;;5046938;28;20461;-90
2023/12/28 02:23:23;;;;;;;2.67;2.47;;;6.90;99.90;;;;;;5032236;28;20480;-89
2023/12/28 02:25:49;;;;;;;1.30;1.20;;;7.00;99.90;;;;;;5032949;28;20422;-89
2023/12/28 02:28:15;;;;;;;1.97;1.70;;;7.00;99.90;;;;;;5032402;28;20218;-88
2023/12/28 02:30:40;;;;;;;1.43;1.33;;;7.00;99.90;;;;;;5030726;28;20202;-89
2023/12/28 02:33:33;;;;;;;1.20;0.80;;;7.00;99.90;;;;;;5015447;28;20434;-89
2023/12/28 02:36:04;;;;;;;2.07;1.87;;;7.00;99.90;;;;;;5032908;28;20188;-91
2023/12/28 02:38:32;;;;;;;1.10;1.00;;;7.00;99.90;;;;;;5025430;28;20423;-89
2023/12/28 02:40:58;;;;;;;0.80;0.60;;;7.10;99.90;;;;;;5032487;28;20434;-90
2023/12/28 02:43:24;;;;;;;0.90;0.80;;;7.10;99.90;;;;;;5032687;28;20422;-89
2023/12/28 02:45:49;;;;;;;0.97;0.87;;;7.10;99.90;;;;;;5031427;28;20441;-89
2023/12/28 02:48:15;;;;;;;0.80;0.70;;;7.10;99.90;;;;;;5034654;28;20200;-89
2023/12/28 02:50:40;;;;;;;0.97;0.77;;;7.20;99.90;;;;;;5024698;28;20226;-89
2023/12/28 02:53:06;;;;;;;1.83;1.07;;;7.30;99.90;;;;;;5029425;28;20221;-89
2023/12/28 02:55:31;;;;;;;1.03;1.00;;;7.20;99.90;;;;;;5034684;28;20632;-89
2023/12/28 02:58:00;;;;;;;1.00;0.80;;;7.20;99.90;;;;;;5014449;28;20214;-88
2023/12/28 03:00:26;;;;;;;0.80;0.70;;;7.20;99.90;;;;;;5030167;28;20190;-87
2023/12/28 03:02:52;;;;;;;0.80;0.67;;;7.30;99.90;;;;;;5027088;28;20429;-90
2023/12/28 03:05:18;;;;;;;2.60;1.37;;;7.30;99.90;;;;;;5044411;28;20448;-89
2023/12/28 03:07:44;;;;;;;1.30;0.73;;;7.30;99.90;;;;;;5050496;28;20218;-87
2023/12/28 03:10:11;;;;;;;1.33;1.23;;;7.30;99.90;;;;;;5031513;28;20579;-89
2023/12/28 03:12:36;;;;;;;1.13;1.03;;;7.30;99.90;;;;;;5034182;28;20422;-90
2023/12/28 03:15:03;;;;;;;1.27;1.17;;;7.30;99.90;;;;;;5032957;28;21094;-90
2023/12/28 03:17:30;;;;;;;1.07;0.83;;;7.30;99.90;;;;;;5032230;28;20988;-90
2023/12/28 03:19:56;;;;;;;1.00;0.70;;;7.40;99.90;;;;;;5018304;28;21234;-90
2023/12/28 03:22:21;;;;;;;2.70;2.03;;;7.40;99.90;;;;;;5026744;28;20461;-89
2023/12/28 03:24:47;;;;;;;0.83;0.83;;;7.40;99.90;;;;;;5046642;28;20525;-90
2023/12/28 03:27:13;;;;;;;0.80;0.60;;;7.30;99.90;;;;;;5015121;28;20177;-89
2023/12/28 03:29:41;;;;;;;1.20;0.90;;;7.30;99.90;;;;;;5047297;28;20550;-89
2023/12/28 03:32:06;;;;;;;0.80;0.73;;;7.50;99.90;;;;;;5013973;28;20437;-90
2023/12/28 03:34:32;;;;;;;1.13;1.03;;;7.50;99.90;;;;;;5034004;28;20433;-90
2023/12/28 03:36:58;;;;;;;0.90;0.80;;;7.50;99.90;;;;;;5019423;28;20275;-89
2023/12/28 03:39:24;;;;;;;1.27;1.17;;;7.40;99.90;;;;;;5015160;28;20923;-90
2023/12/28 03:41:50;;;;;;;5.80;1.17;;;7.40;99.90;;;;;;5029639;28;20515;-90
2023/12/28 03:44:15;;;;;;;0.80;0.80;;;7.40;99.90;;;;;;5012197;28;20180;-89
2023/12/28 03:46:41;;;;;;;1.17;1.07;;;7.40;99.90;;;;;;5025534;28;20639;-90
2023/12/28 03:49:06;;;;;;;0.70;0.60;;;7.40;99.90;;;;;;5032118;28;20230;-90
2023/12/28 03:51:32;;;;;;;0.70;0.70;;;7.40;99.90;;;;;;5032457;28;20191;-90
2023/12/28 03:53:58;;;;;;;0.90;0.90;;;7.40;99.90;;;;;;5033142;28;20601;-90
2023/12/28 03:56:25;;;;;;;0.77;0.70;;;7.40;99.90;;;;;;5027490;28;20195;-90
2023/12/28 03:58:51;;;;;;;1.13;1.03;;;7.40;99.90;;;;;;5020989;28;20274;-90
2023/12/28 04:01:22;;;;;;;0.87;0.80;;;7.40;99.90;;;;;;5028993;28;20434;-90
2023/12/28 04:03:48;;;;;;;0.70;0.60;;;7.40;99.90;;;;;;5016533;28;20443;-89
2023/12/28 04:06:14;;;;;;;0.70;0.60;;;7.50;99.90;;;;;;5031543;28;20419;-90
2023/12/28 04:08:43;;;;;;;1.00;0.90;;;7.50;99.90;;;;;;5030665;28;20466;-91
2023/12/28 04:11:09;;;;;;;2.20;2.00;;;7.40;99.90;;;;;;5031058;28;20438;-90
2023/12/28 04:13:35;;;;;;;9.00;1.10;;;7.40;99.90;;;;;;5020591;28;20431;-88
2023/12/28 04:16:01;;;;;;;1.27;1.17;;;7.40;99.90;;;;;;5034324;28;20429;-90
2023/12/28 04:18:27;;;;;;;0.70;0.60;;;7.30;99.90;;;;;;5052509;28;21171;-90
2023/12/28 04:20:53;;;;;;;0.97;0.97;;;7.30;99.90;;;;;;5039155;28;20971;-90
2023/12/28 04:23:18;;;;;;;3.10;2.17;;;7.20;99.90;;;;;;5029125;28;20189;-90
2023/12/28 04:25:44;;;;;;;2.00;1.90;;;7.20;99.90;;;;;;5029925;28;20418;-90
2023/12/28 04:28:10;;;;;;;0.70;0.63;;;7.20;99.90;;;;;;5019883;28;20218;-91
2023/12/28 04:30:35;;;;;;;0.60;0.60;;;7.10;99.90;;;;;;5034164;28;20852;-91
2023/12/28 04:33:01;;;;;;;1.27;1.17;;;7.20;99.90;;;;;;5014174;28;20518;-90
2023/12/28 04:35:27;;;;;;;0.60;0.60;;;7.20;99.90;;;;;;5012888;28;20707;-90
2023/12/28 04:37:52;;;;;;;1.00;0.90;;;7.10;99.90;;;;;;5019367;28;20187;-91
2023/12/28 04:40:18;;;;;;;0.70;0.60;;;7.10;99.90;;;;;;5024735;28;20266;-91
2023/12/28 04:42:44;;;;;;;1.43;0.90;;;7.00;99.90;;;;;;5036633;28;20198;-90
2023/12/28 04:45:12;;;;;;;0.63;0.60;;;7.00;99.90;;;;;;5033726;28;20270;-89
2023/12/28 04:47:38;;;;;;;0.70;0.70;;;7.00;99.90;;;;;;5049137;28;20206;-90
2023/12/28 04:50:05;;;;;;;0.60;0.60;;;7.00;99.90;;;;;;5041887;28;20445;-90
2023/12/28 04:52:30;;;;;;;2.00;1.90;;;7.00;99.90;;;;;;5015636;28;20187;-89
2023/12/28 04:54:56;;;;;;;0.87;0.83;;;7.10;99.90;;;;;;5031893;28;20438;-89
2023/12/28 04:57:24;;;;;;;0.70;0.70;;;7.10;99.90;;;;;;5046370;28;20780;-90
2023/12/28 04:59:50;;;;;;;1.10;1.00;;;7.10;99.90;;;;;;5032969;28;20683;-91
2023/12/28 05:02:15;;;;;;;0.80;0.80;;;7.00;99.90;;;;;;5035876;28;20438;-90
2023/12/28 05:04:41;;;;;;;12.53;3.03;;;7.10;99.90;;;;;;5035276;28;20180;-90
2023/12/28 05:07:07;;;;;;;0.60;0.60;;;7.10;99.90;;;;;;5036440;28;20187;-90
2023/12/28 05:09:32;;;;;;;1.47;1.00;;;7.20;99.90;;;;;;5034974;28;20189;-90
2023/12/28 05:11:58;;;;;;;0.70;0.70;;;7.20;99.90;;;;;;5016742;28;20209;-90
2023/12/28 05:14:23;;;;;;;0.90;0.70;;;7.20;99.90;;;;;;5042346;28;20182;-89
2023/12/28 05:16:49;;;;;;;1.20;0.70;;;7.20;99.90;;;;;;5050111;28;20182;-90
2023/12/28 05:19:15;;;;;;;0.90;0.90;;;7.10;99.90;;;;;;5042299;28;20217;-90
2023/12/28 05:21:40;;;;;;;2.23;2.10;;;7.10;99.90;;;;;;5029439;28;20215;-91
2023/12/28 05:24:06;;;;;;;1.30;1.30;;;7.20;99.90;;;;;;5051399;28;20552;-90
2023/12/28 05:26:31;;;;;;;0.70;0.70;;;7.20;99.90;;;;;;5056697;28;20178;-91
2023/12/28 05:28:57;;;;;;;0.70;0.70;;;7.20;99.90;;;;;;5052176;28;20253;-91
2023/12/28 05:31:22;;;;;;;0.90;0.90;;;7.10;99.90;;;;;;5033231;28;20201;-90
2023/12/28 05:33:48;;;;;;;1.43;1.33;;;7.10;99.90;;;;;;5034050;28;20176;-89
2023/12/28 05:36:13;;;;;;;1.00;1.00;;;7.10;99.90;;;;;;5048189;28;20187;-90
2023/12/28 05:38:39;;;;;;;2.13;2.03;;;7.20;99.90;;;;;;5035893;28;20187;-91
2023/12/28 05:41:05;;;;;;;1.00;1.00;;;7.10;99.90;;;;;;5035199;28;20183;-90
2023/12/28 05:43:30;;;;;;;0.83;0.77;;;7.10;99.90;;;;;;5034952;28;20225;-91
2023/12/28 05:45:56;;;;;;;0.90;0.90;;;7.30;99.90;;;;;;5033632;28;20665;-91
2023/12/28 05:48:21;;;;;;;0.60;0.60;;;7.30;99.90;;;;;;5035559;28;20248;-90
2023/12/28 05:50:47;;;;;;;1.20;1.20;;;7.30;99.90;;;;;;5017567;28;20180;-90
2023/12/28 05:53:14;;;;;;;0.80;0.80;;;7.30;99.90;;;;;;5029118;28;20723;-90
2023/12/28 05:55:42;;;;;;;1.57;1.47;;;7.30;99.90;;;;;;5029901;28;20189;-90
2023/12/28 05:58:09;;;;;;;1.07;1.00;;;7.30;99.90;;;;;;5037987;28;20480;-91
2023/12/28 06:00:34;;;;;;;0.60;0.60;;;7.30;99.90;;;;;;5027421;28;20428;-91
2023/12/28 06:03:02;;;;;;;0.70;0.70;;;7.20;99.90;;;;;;5028980;28;20446;-91
2023/12/28 06:05:27;;;;;;;0.60;0.60;;;7.30;99.90;;;;;;5032736;28;20184;-90
2023/12/28 06:07:59;;;;;;;0.70;0.70;;;7.30;99.90;;;;;;5025368;28;20979;-91
2023/12/28 06:10:24;;;;;;;0.90;0.80;;;7.50;99.90;;;;;;5037481;28;20202;-89
2023/12/28 06:12:50;;;;;;;1.33;1.20;;;7.60;99.90;;;;;;5023236;28;20435;-91
2023/12/28 06:15:16;;;;;;;0.87;0.87;;;7.60;99.90;;;;;;5024555;28;20678;-92
2023/12/28 06:17:41;;;;;;;0.90;0.90;;;7.50;99.90;;;;;;5013672;28;20228;-92
2023/12/28 06:20:08;;;;;;;0.70;0.70;;;7.60;99.90;;;;;;5041431;28;21647;-92
2023/12/28 06:22:36;;;;;;;3.30;3.20;;;7.50;99.90;;;;;;5054230;28;20190;-91
2023/12/28 06:25:02;;;;;;;1.57;1.57;;;7.50;99.90;;;;;;5033801;28;20414;-92
2023/12/28 06:27:27;;;;;;;4.60;4.50;;;7.50;99.90;;;;;;5034305;28;20478;-92
2023/12/28 06:29:53;;;;;;;0.93;0.93;;;7.50;99.90;;;;;;5015941;28;20280;-92
2023/12/28 06:32:18;;;;;;;2.20;2.20;;;7.50;99.90;;;;;;5027542;28;20212;-91
2023/12/28 06:34:43;;;;;;;2.10;2.10;;;7.50;99.90;;;;;;5005723;28;20197;-91
2023/12/28 06:37:10;;;;;;;0.73;0.73;;;7.50;99.90;;;;;;5037430;28;20986;-92
2023/12/28 06:39:35;;;;;;;0.80;0.80;;;7.60;99.90;;;;;;5051046;28;20269;-92
2023/12/28 06:42:01;;;;;;;0.93;0.93;;;7.60;99.90;;;;;;5020907;28;20463;-93
2023/12/28 06:44:26;;;;;;;1.17;1.17;;;7.70;99.90;;;;;;5050534;28;20185;-93
2023/12/28 06:46:52;;;;;;;0.70;0.70;;;7.80;99.90;;;;;;5045504;28;20187;-91
2023/12/28 06:49:17;;;;;;;0.77;0.77;;;7.80;99.90;;;;;;5039490;28;20248;-91
2023/12/28 06:51:45;;;;;;;0.57;0.57;;;7.80;99.90;;;;;;5040931;28;20184;-91
2023/12/28 06:54:10;;;;;;;0.30;0.30;;;7.90;99.90;;;;;;5015950;28;20552;-92
2023/12/28 06:56:36;;;;;;;1.03;1.03;;;7.90;99.90;;;;;;5016238;28;20426;-91
2023/12/28 06:59:01;;;;;;;0.97;0.97;;;7.90;99.90;;;;;;5033841;28;20242;-94
2023/12/28 07:01:27;;;;;;;0.60;0.60;;;7.80;99.90;;;;;;5045734;28;20185;-90
2023/12/28 07:03:52;;;;;;;0.73;0.73;;;7.90;99.90;;;;;;5035675;28;20198;-92
2023/12/28 07:06:18;;;;;;;1.27;1.27;;;7.90;99.90;;;;;;5022962;28;20176;-92
2023/12/28 07:08:43;;;;;;;2.23;2.23;;;8.00;99.90;;;;;;5034774;28;20214;-92
2023/12/28 07:11:12;;;;;;;0.53;0.53;;;8.10;99.90;;;;;;5035678;28;20179;-92
2023/12/28 07:13:37;;;;;;;1.17;1.17;;;8.00;99.90;;;;;;5047223;28;20659;-91
2023/12/28 07:16:03;;;;;;;0.50;0.50;;;8.10;99.90;;;;;;5029356;28;20418;-91
2023/12/28 07:18:29;;;;;;;0.73;0.73;;;8.10;99.90;;;;;;5032017;28;20191;-92
2023/12/28 07:20:55;;;;;;;0.30;0.30;;;8.10;99.90;;;;;;5018375;28;20466;-91
2023/12/28 07:23:20;;;;;;;0.30;0.30;;;8.10;99.90;;;;;;4993124;28;20557;-92
2023/12/28 07:25:46;;;;;;;0.50;0.50;;;8.10;99.90;;;;;;4997274;28;20218;-91
2023/12/28 07:28:11;;;;;;;0.30;0.30;;;8.10;99.90;;;;;;4996468;28;20208;-92
2023/12/28 07:30:37;;;;;;;0.23;0.23;;;8.20;99.90;;;;;;4995897;28;20181;-92
2023/12/28 07:33:03;;;;;;;0.50;0.50;;;8.20;99.90;;;;;;4997830;28;20189;-92
2023/12/28 07:35:29;;;;;;;0.40;0.40;;;8.20;99.90;;;;;;4998645;28;20268;-90
2023/12/28 07:37:54;;;;;;;0.40;0.40;;;8.20;99.90;;;;;;4998204;28;20191;-92
2023/12/28 07:40:20;;;;;;;0.43;0.43;;;8.30;99.90;;;;;;5003000;28;20184;-91
2023/12/28 07:42:45;;;;;;;0.70;0.70;;;8.50;99.90;;;;;;5007519;28;20244;-89
2023/12/28 07:45:11;;;;;;;0.73;0.73;;;8.70;99.90;;;;;;5009804;28;20232;-84
2023/12/28 07:47:36;;;;;;;0.30;0.30;;;8.60;99.90;;;;;;5008293;28;20672;-91
2023/12/28 07:50:02;;;;;;;0.20;0.20;;;8.50;99.90;;;;;;4987502;28;20196;-92
2023/12/28 07:52:28;;;;;;;0.40;0.40;;;8.60;99.90;;;;;;5007092;28;20172;-90
2023/12/28 07:54:53;;;;;;;0.30;0.30;;;8.50;99.90;;;;;;5009484;28;20217;-90
2023/12/28 07:57:19;;;;;;;0.60;0.60;;;8.60;99.90;;;;;;5004076;28;20442;-90
2023/12/28 07:59:44;;;;;;;0.50;0.50;;;8.70;99.90;;;;;;5013099;28;20188;-90
2023/12/28 08:02:10;;;;;;;0.30;0.30;;;8.50;99.90;;;;;;5009540;28;20216;-90
2023/12/28 08:04:35;;;;;;;0.30;0.30;;;8.50;99.90;;;;;;5000385;28;20243;-89
2023/12/28 08:07:01;;;;;;;0.50;0.50;;;8.50;99.90;;;;;;5011814;28;20664;-88
2023/12/28 08:09:26;;;;;;;0.40;0.40;;;8.60;99.90;;;;;;4993893;28;20703;-88
2023/12/28 08:11:52;;;;;;;0.40;0.40;;;8.50;99.90;;;;;;5009736;28;20179;-90
2023/12/28 08:14:18;;;;;;;0.30;0.30;;;8.50;99.90;;;;;;5000568;28;20197;-87
2023/12/28 08:16:44;;;;;;;0.20;0.20;;;8.60;99.90;;;;;;5008005;28;20914;-88
2023/12/28 08:19:09;;;;;;;0.40;0.40;;;8.70;99.90;;;;;;4997838;28;20458;-91
2023/12/28 08:21:35;;;;;;;0.20;0.20;;;8.60;99.90;;;;;;4999678;28;20232;-90
2023/12/28 08:24:01;;;;;;;0.30;0.30;;;8.60;99.90;;;;;;5011118;28;20192;-90
2023/12/28 08:26:27;;;;;;;0.30;0.30;;;8.60;99.90;;;;;;5002719;28;20185;-89
2023/12/28 08:28:52;;;;;;;0.30;0.30;;;8.60;99.90;;;;;;5009915;28;21119;-91
2023/12/28 08:31:18;;;;;;;0.20;0.20;;;8.50;99.90;;;;;;5008637;28;20428;-89
2023/12/28 08:33:43;;;;;;;0.20;0.20;;;8.40;99.90;;;;;;5009782;28;20250;-88
2023/12/28 08:36:09;;;;;;;0.30;0.30;;;8.40;99.90;;;;;;5001879;28;20189;-89
2023/12/28 08:38:35;;;;;;;0.30;0.30;;;8.40;99.90;;;;;;5004119;28;20288;-90
2023/12/28 08:41:03;;;;;;;0.53;0.53;;;8.40;99.90;;;;;;5009838;28;20482;-89
2023/12/28 08:43:29;;;;;;;0.40;0.40;;;8.40;99.90;;;;;;4987022;28;20284;-92
2023/12/28 08:45:54;;;;;;;0.40;0.40;;;8.50;99.90;;;;;;5004335;28;20542;-92
2023/12/28 08:48:20;;;;;;;0.30;0.30;;;8.50;99.90;;;;;;5009074;28;20219;-91
2023/12/28 08:50:45;;;;;;;0.30;0.30;;;8.50;99.90;;;;;;5013460;28;20189;-90
2023/12/28 08:53:11;;;;;;;0.30;0.30;;;8.60;99.90;;;;;;5009636;28;20223;-91
2023/12/28 08:55:36;;;;;;;0.30;0.30;;;8.60;99.90;;;;;;5004544;28;20184;-90
2023/12/28 08:58:02;;;;;;;0.30;0.30;;;8.60;99.90;;;;;;4997525;28;20610;-81
2023/12/28 09:00:28;;;;;;;0.30;0.30;;;8.70;99.90;;;;;;5006462;28;20189;-87
2023/12/28 09:02:53;;;;;;;0.20;0.20;;;8.70;99.90;;;;;;4998151;28;20176;-89
2023/12/28 09:05:19;;;;;;;0.30;0.30;;;8.70;99.90;;;;;;4984098;28;20559;-87
2023/12/28 09:07:44;;;;;;;0.30;0.30;;;8.60;99.90;;;;;;5007095;28;20298;-87
2023/12/28 09:10:11;;;;;;;0.30;0.30;;;8.70;99.90;;;;;;4999451;28;20185;-87
2023/12/28 09:12:36;;;;;;;0.20;0.20;;;8.70;99.90;;;;;;4997732;28;20180;-89
2023/12/28 09:15:06;;;;;;;0.20;0.20;;;8.70;99.90;;;;;;5003592;28;20424;-87
2023/12/28 09:17:31;;;;;;;0.20;0.20;;;8.90;99.90;;;;;;4999578;28;20192;-86
2023/12/28 09:19:58;;;;;;;0.20;0.20;;;9.00;99.90;;;;;;4997041;28;20428;-86
2023/12/28 09:22:23;;;;;;;0.20;0.20;;;9.10;99.90;;;;;;5026183;28;20559;-87
2023/12/28 09:24:49;;;;;;;0.20;0.20;;;9.10;99.90;;;;;;5018463;28;20427;-87
2023/12/28 09:27:14;;;;;;;0.20;0.20;;;9.20;99.90;;;;;;5008496;28;20671;-88
2023/12/28 09:29:40;;;;;;;0.20;0.20;;;9.30;99.90;;;;;;5022896;28;20210;-88
2023/12/28 09:32:06;;;;;;;0.20;0.20;;;9.40;99.90;;;;;;5024923;28;20192;-87
2023/12/28 09:34:32;;;;;;;0.20;0.20;;;9.30;99.90;;;;;;5005538;28;20194;-87
2023/12/28 09:36:58;;;;;;;0.20;0.20;;;9.40;99.90;;;;;;5017890;28;20583;-89
2023/12/28 09:39:23;;;;;;;0.20;0.20;;;9.50;99.90;;;;;;5024356;28;20419;-89
2023/12/28 09:41:55;;;;;;;0.20;0.20;;;9.50;99.90;;;;;;5026155;28;20196;-87
2023/12/28 09:44:22;;;;;;;0.20;0.20;;;9.60;99.90;;;;;;5029484;28;20608;-87
2023/12/28 09:46:47;;;;;;;0.20;0.20;;;9.60;99.90;;;;;;5013565;28;20482;-87
2023/12/28 09:49:13;;;;;;;0.20;0.20;;;9.60;99.90;;;;;;5025605;28;21032;-86
2023/12/28 09:51:39;;;;;;;0.20;0.20;;;9.60;99.90;;;;;;5024479;28;20195;-86
2023/12/28 09:54:04;;;;;;;0.20;0.20;;;9.70;99.90;;;;;;5022288;28;20246;-84
2023/12/28 09:56:32;;;;;;;0.20;0.20;;;9.60;99.90;;;;;;5020836;28;20683;-86
2023/12/28 09:58:58;;;;;;;0.20;0.20;;;9.70;99.90;;;;;;5008725;28;20188;-87
2023/12/28 10:01:24;;;;;;;0.20;0.20;;;9.60;99.90;;;;;;5024901;28;20428;-87
2023/12/28 10:03:50;;;;;;;0.20;0.20;;;9.50;99.90;;;;;;5011922;28;20524;-86
2023/12/28 10:06:16;;;;;;;0.20;0.20;;;9.40;99.90;;;;;;5021018;28;20191;-86
2023/12/28 10:08:48;;;;;;;0.20;0.20;;;9.40;99.90;;;;;;5021552;28;20475;-85
2023/12/28 10:11:20;;;;;;;0.20;0.20;;;9.40;99.90;;;;;;5024340;28;20187;-85
2023/12/28 10:13:46;;;;;;;0.20;0.20;;;9.40;99.90;;;;;;5020023;28;20492;-83
2023/12/28 10:16:12;;;;;;;0.20;0.20;;;9.60;99.90;;;;;;5024692;28;20881;-84
2023/12/28 10:18:44;;;;;;;0.10;0.10;;;9.70;99.90;;;;;;5020666;28;20208;-85
2023/12/28 10:21:10;;;;;;;0.13;0.13;;;9.70;99.90;;;;;;5025778;28;20466;-85
2023/12/28 10:23:36;;;;;;;0.20;0.20;;;9.70;99.90;;;;;;5030453;28;20853;-84
2023/12/28 10:26:04;;;;;;;0.20;0.20;;;9.70;99.90;;;;;;5028476;28;20422;-86
2023/12/28 10:28:32;;;;;;;0.20;0.20;;;9.90;99.90;;;;;;5019913;28;21155;-85
2023/12/28 10:30:58;;;;;;;0.20;0.20;;;9.80;99.90;;;;;;5021993;28;20919;-86
2023/12/28 10:33:23;;;;;;;0.20;0.20;;;9.90;99.90;;;;;;5029375;28;20656;-86
2023/12/28 10:35:50;;;;;;;0.20;0.20;;;9.90;99.90;;;;;;5024979;28;20197;-85
2023/12/28 10:38:17;;;;;;;0.20;0.20;;;9.90;99.90;;;;;;5029713;28;20179;-85
2023/12/28 10:40:50;;;;;;;0.20;0.20;;;9.90;99.90;;;;;;5028671;28;20961;-84
2023/12/28 10:43:19;;;;;;;0.20;0.20;;;10.00;99.90;;;;;;5036563;28;20421;-85
2023/12/28 10:45:50;;;;;;;0.20;0.20;;;10.10;99.90;;;;;;5040508;28;20802;-87
2023/12/28 10:48:33;;;;;;;0.10;0.10;;;10.10;99.90;;;;;;5049285;28;20508;-84
2023/12/28 10:51:03;;;;;;;0.13;0.13;;;10.00;99.90;;;;;;5030930;28;20441;-84
2023/12/28 10:53:42;;;;;;;0.20;0.20;;;9.90;99.90;;;;;;5032576;28;20423;-86
2023/12/28 10:56:43;;;;;;;0.17;0.17;;;10.00;99.90;;;;;;5027663;28;20460;-84
2023/12/28 10:59:35;;;;;;;0.20;0.20;;;9.90;99.90;;;;;;5030243;28;20426;-84
2023/12/28 11:02:02;;;;;;;0.13;0.13;;;9.90;99.90;;;;;;5015228;28;20572;-84
2023/12/28 11:04:33;;;;;;;0.10;0.10;;;10.00;99.90;;;;;;5004576;28;20430;-84
2023/12/28 11:07:01;;;;;;;0.20;0.20;;;9.90;99.90;;;;;;5034175;28;20453;-84
2023/12/28 11:09:30;;;;;;;0.20;0.20;;;9.80;99.90;;;;;;5016814;28;20474;-84
2023/12/28 11:11:59;;;;;;;0.20;0.20;;;9.60;99.90;;;;;;5035755;28;20442;-86
2023/12/28 11:14:25;;;;;;;0.20;0.20;;;9.40;99.90;;;;;;5022525;28;20526;-85
2023/12/28 11:16:51;;;;;;;0.20;0.20;;;9.40;99.90;;;;;;5030645;28;20457;-85
2023/12/28 11:19:17;;;;;;;0.20;0.20;;;9.30;99.90;;;;;;5030347;28;20500;-86
2023/12/28 11:21:44;;;;;;;0.20;0.20;;;9.30;99.90;;;;;;5033568;28;20456;-87
2023/12/28 11:24:09;;;;;;;0.20;0.20;;;9.30;99.90;;;;;;5022283;28;20647;-88
2023/12/28 11:26:35;;;;;;;0.20;0.20;;;9.20;99.90;;;;;;5038541;28;20456;-85
2023/12/28 11:29:04;;;;;;;0.20;0.20;;;9.00;99.90;;;;;;5037123;28;20252;-85
2023/12/28 11:31:36;;;;;;;0.20;0.20;;;9.00;99.90;;;;;;5024829;28;20186;-87
2023/12/28 11:34:07;;;;;;;0.20;0.20;;;8.90;99.90;;;;;;5037346;28;20489;-84
2023/12/28 11:36:43;;;;;;;0.20;0.20;;;8.80;99.90;;;;;;5026946;28;20446;-84
2023/12/28 11:39:10;;;;;;;0.20;0.20;;;8.80;99.90;;;;;;5027989;28;20931;-85
2023/12/28 11:41:38;;;;;;;0.20;0.20;;;8.80;99.90;;;;;;5020486;28;20433;-85
2023/12/28 11:44:05;;;;;;;0.20;0.20;;;8.70;99.90;;;;;;5008333;28;20434;-85
2023/12/28 11:46:31;;;;;;;0.20;0.20;;;8.80;99.90;;;;;;5028707;28;20442;-83
2023/12/28 11:49:05;;;;;;;0.20;0.20;;;8.70;99.90;;;;;;5016468;28;20576;-84
2023/12/28 11:51:30;;;;;;;0.20;0.20;;;8.70;99.90;;;;;;5036969;28;20412;-83
2023/12/28 11:53:57;;;;;;;0.20;0.20;;;8.70;99.90;;;;;;5013196;28;20497;-83
2023/12/28 11:56:22;;;;;;;0.20;0.20;;;8.60;99.90;;;;;;5028545;28;20237;-83
2023/12/28 11:58:48;;;;;;;0.20;0.20;;;8.60;99.90;;;;;;5026610;28;20826;-84
2023/12/28 12:01:13;;;;;;;0.20;0.20;;;8.50;99.90;;;;;;5012486;28;20191;-82
2023/12/28 12:03:39;;;;;;;0.10;0.10;;;8.50;99.90;;;;;;5028936;28;20207;-82
2023/12/28 12:06:05;;;;;;;0.20;0.20;;;8.60;99.90;;;;;;5026703;28;20192;-82
2023/12/28 12:08:31;;;;;;;0.20;0.20;;;8.70;99.90;;;;;;5033799;28;20578;-83
2023/12/28 12:11:05;;;;;;;0.20;0.20;;;8.60;99.90;;;;;;5042786;28;20278;-83
2023/12/28 12:13:31;;;;;;;0.17;0.17;;;8.60;99.90;;;;;;5030989;28;20484;-81
2023/12/28 12:15:57;;;;;;;0.20;0.20;;;8.70;99.90;;;;;;5031698;28;20996;-82
2023/12/28 12:18:23;;;;;;;0.20;0.20;;;8.80;99.90;;;;;;5011183;28;20520;-83
2023/12/28 12:20:49;;;;;;;0.13;0.13;;;9.00;99.90;;;;;;5025639;28;20371;-84
2023/12/28 12:23:15;;;;;;;0.20;0.20;;;9.00;99.90;;;;;;5029533;28;20457;-84
2023/12/28 12:25:41;;;;;;;0.20;0.20;;;9.20;99.90;;;;;;5028853;28;20836;-83
2023/12/28 12:28:08;;;;;;;0.20;0.20;;;9.20;99.90;;;;;;5040545;28;20518;-84
2023/12/28 12:30:34;;;;;;;0.20;0.20;;;9.30;99.90;;;;;;5030674;28;20484;-85
2023/12/28 12:33:00;;;;;;;0.20;0.20;;;9.20;99.90;;;;;;5032007;28;20417;-85
2023/12/28 12:35:25;;;;;;;0.20;0.20;;;9.30;99.90;;;;;;5033171;28;20319;-84
2023/12/28 12:37:51;;;;;;;0.17;0.17;;;9.30;99.90;;;;;;5019056;28;20186;-86
2023/12/28 12:40:19;;;;;;;0.20;0.20;;;9.40;99.90;;;;;;5035097;28;20282;-86
2023/12/28 12:42:53;;;;;;;0.20;0.20;;;9.30;99.90;;;;;;5026854;28;20853;-86
2023/12/28 12:45:19;;;;;;;0.10;0.10;;;9.30;99.90;;;;;;5026764;28;20457;-86
2023/12/28 12:47:46;;;;;;;0.20;0.20;;;9.20;99.90;;;;;;5029913;28;20486;-87
2023/12/28 12:50:12;;;;;;;0.20;0.20;;;9.20;99.90;;;;;;5030961;28;20179;-86
2023/12/28 12:52:38;;;;;;;0.17;0.17;;;9.20;99.90;;;;;;5029567;28;20829;-85
2023/12/28 12:55:04;;;;;;;0.10;0.10;;;9.10;99.90;;;;;;5024512;28;20201;-86